sensor_id;sensor_type;location;lat;lon;timestamp;P1;durP1;ratioP1;P2;durP2;ratioP2
3847;SDS011;1939;48.720;9.166;2023-11-21T00:01:34;10.10;;;2.50;;
3847;SDS011;1939;48.720;9.166;2023-11-21T00:03:59;7.13;;;2.00;;
3847;SDS011;1939;48.720;9.166;2023-11-21T00:06:26;4.53;;;2.23;;
3847;SDS011;1939;48.720;9.166;2023-11-21T00:08:51;3.40;;;2.03;;
3847;SDS011;1939;48.720;9.166;2023-11-21T00:11:17;4.77;;;2.23;;
3847;SDS011;1939;48.720;9.166;2023-11-21T00:13:42;6.60;;;3.50;;
3847;SDS011;1939;48.720;9.166;2023-11-21T00:16:07;6.00;;;2.47;;
3847;SDS011;1939;48.720;9.166;2023-11-21T00:18:32;9.13;;;2.23;;
3847;SDS011;1939;48.720;9.166;2023-11-21T00:20:58;3.50;;;2.30;;
3847;SDS011;1939;48.720;9.166;2023-11-21T00:23:24;6.10;;;2.70;;
3847;SDS011;1939;48.720;9.166;2023-11-21T00:25:49;7.30;;;3.80;;
3847;SDS011;1939;48.720;9.166;2023-11-21T00:28:14;3.10;;;1.93;;
3847;SDS011;1939;48.720;9.166;2023-11-21T00:30:40;6.60;;;2.70;;
3847;SDS011;1939;48.720;9.166;2023-11-21T00:33:05;9.97;;;3.27;;
3847;SDS011;1939;48.720;9.166;2023-11-21T00:35:30;8.00;;;2.77;;
3847;SDS011;1939;48.720;9.166;2023-11-21T00:37:56;8.70;;;3.00;;
3847;SDS011;1939;48.720;9.166;2023-11-21T00:40:22;5.37;;;2.63;;
3847;SDS011;1939;48.720;9.166;2023-11-21T00:42:48;7.03;;;2.20;;
3847;SDS011;1939;48.720;9.166;2023-11-21T00:45:13;8.10;;;3.00;;
3847;SDS011;1939;48.720;9.166;2023-11-21T00:47:38;4.13;;;2.33;;
3847;SDS011;1939;48.720;9.166;2023-11-21T00:50:04;4.80;;;1.93;;
3847;SDS011;1939;48.720;9.166;2023-11-21T00:52:31;5.30;;;2.70;;
3847;SDS011;1939;48.720;9.166;2023-11-21T00:54:56;5.73;;;2.20;;
3847;SDS011;1939;48.720;9.166;2023-11-21T00:57:24;3.87;;;1.97;;
3847;SDS011;1939;48.720;9.166;2023-11-21T00:59:49;10.57;;;2.07;;
3847;SDS011;1939;48.720;9.166;2023-11-21T01:02:14;6.17;;;2.10;;
3847;SDS011;1939;48.720;9.166;2023-11-21T01:04:40;6.67;;;2.03;;
3847;SDS011;1939;48.720;9.166;2023-11-21T01:07:05;7.50;;;2.40;;
3847;SDS011;1939;48.720;9.166;2023-11-21T01:09:31;6.27;;;2.30;;
3847;SDS011;1939;48.720;9.166;2023-11-21T01:11:56;6.90;;;2.47;;
3847;SDS011;1939;48.720;9.166;2023-11-21T01:14:22;4.27;;;1.87;;
3847;SDS011;1939;48.720;9.166;2023-11-21T01:16:47;2.40;;;1.67;;
3847;SDS011;1939;48.720;9.166;2023-11-21T01:19:13;6.67;;;2.33;;
3847;SDS011;1939;48.720;9.166;2023-11-21T01:21:39;8.00;;;2.27;;
3847;SDS011;1939;48.720;9.166;2023-11-21T01:24:04;4.83;;;2.30;;
3847;SDS011;1939;48.720;9.166;2023-11-21T01:26:32;6.40;;;1.73;;
3847;SDS011;1939;48.720;9.166;2023-11-21T01:28:57;3.50;;;2.03;;
3847;SDS011;1939;48.720;9.166;2023-11-21T01:31:22;5.97;;;2.40;;
3847;SDS011;1939;48.720;9.166;2023-11-21T01:33:48;8.93;;;1.77;;
3847;SDS011;1939;48.720;9.166;2023-11-21T01:36:13;6.47;;;2.40;;
3847;SDS011;1939;48.720;9.166;2023-11-21T01:38:38;5.70;;;2.33;;
3847;SDS011;1939;48.720;9.166;2023-11-21T01:41:04;3.80;;;1.80;;
3847;SDS011;1939;48.720;9.166;2023-11-21T01:43:30;3.70;;;1.27;;
3847;SDS011;1939;48.720;9.166;2023-11-21T01:45:57;6.83;;;2.17;;
3847;SDS011;1939;48.720;9.166;2023-11-21T01:48:23;9.03;;;4.50;;
3847;SDS011;1939;48.720;9.166;2023-11-21T01:50:48;8.97;;;2.20;;
3847;SDS011;1939;48.720;9.166;2023-11-21T01:53:13;2.57;;;1.63;;
3847;SDS011;1939;48.720;9.166;2023-11-21T01:55:39;2.67;;;1.70;;
3847;SDS011;1939;48.720;9.166;2023-11-21T01:58:05;15.73;;;2.13;;
3847;SDS011;1939;48.720;9.166;2023-11-21T02:00:32;6.40;;;2.57;;
3847;SDS011;1939;48.720;9.166;2023-11-21T02:02:58;2.70;;;1.60;;
3847;SDS011;1939;48.720;9.166;2023-11-21T02:05:24;3.43;;;1.70;;
3847;SDS011;1939;48.720;9.166;2023-11-21T02:07:51;3.07;;;1.43;;
3847;SDS011;1939;48.720;9.166;2023-11-21T02:10:17;5.70;;;1.97;;
3847;SDS011;1939;48.720;9.166;2023-11-21T02:12:47;5.83;;;1.23;;
3847;SDS011;1939;48.720;9.166;2023-11-21T02:15:13;3.67;;;1.57;;
3847;SDS011;1939;48.720;9.166;2023-11-21T02:17:45;6.63;;;1.93;;
3847;SDS011;1939;48.720;9.166;2023-11-21T02:20:11;1.60;;;1.33;;
3847;SDS011;1939;48.720;9.166;2023-11-21T02:22:40;6.80;;;1.40;;
3847;SDS011;1939;48.720;9.166;2023-11-21T02:25:06;2.70;;;1.10;;
3847;SDS011;1939;48.720;9.166;2023-11-21T02:27:32;8.80;;;1.20;;
3847;SDS011;1939;48.720;9.166;2023-11-21T02:29:58;2.53;;;1.30;;
3847;SDS011;1939;48.720;9.166;2023-11-21T02:32:23;3.90;;;1.17;;
3847;SDS011;1939;48.720;9.166;2023-11-21T02:34:51;6.17;;;1.47;;
3847;SDS011;1939;48.720;9.166;2023-11-21T02:37:16;4.10;;;1.43;;
3847;SDS011;1939;48.720;9.166;2023-11-21T02:39:41;2.50;;;0.97;;
3847;SDS011;1939;48.720;9.166;2023-11-21T02:42:06;8.93;;;1.60;;
3847;SDS011;1939;48.720;9.166;2023-11-21T02:44:31;6.20;;;1.30;;
3847;SDS011;1939;48.720;9.166;2023-11-21T02:46:57;2.27;;;0.90;;
3847;SDS011;1939;48.720;9.166;2023-11-21T02:49:22;2.63;;;1.60;;
3847;SDS011;1939;48.720;9.166;2023-11-21T02:51:48;1.63;;;0.80;;
3847;SDS011;1939;48.720;9.166;2023-11-21T02:54:13;2.07;;;1.10;;
3847;SDS011;1939;48.720;9.166;2023-11-21T02:56:38;4.17;;;1.17;;
3847;SDS011;1939;48.720;9.166;2023-11-21T02:59:05;1.70;;;0.53;;
3847;SDS011;1939;48.720;9.166;2023-11-21T03:01:30;1.90;;;1.03;;
3847;SDS011;1939;48.720;9.166;2023-11-21T03:03:56;3.10;;;1.20;;
3847;SDS011;1939;48.720;9.166;2023-11-21T03:06:21;3.77;;;1.70;;
3847;SDS011;1939;48.720;9.166;2023-11-21T03:08:47;1.80;;;0.97;;
3847;SDS011;1939;48.720;9.166;2023-11-21T03:11:12;2.70;;;1.20;;
3847;SDS011;1939;48.720;9.166;2023-11-21T03:13:38;1.53;;;1.20;;
3847;SDS011;1939;48.720;9.166;2023-11-21T03:16:04;1.47;;;0.67;;
3847;SDS011;1939;48.720;9.166;2023-11-21T03:18:29;5.80;;;1.40;;
3847;SDS011;1939;48.720;9.166;2023-11-21T03:20:55;4.60;;;1.10;;
3847;SDS011;1939;48.720;9.166;2023-11-21T03:23:20;2.43;;;1.37;;
3847;SDS011;1939;48.720;9.166;2023-11-21T03:25:45;4.47;;;1.47;;
3847;SDS011;1939;48.720;9.166;2023-11-21T03:28:10;1.70;;;0.70;;
3847;SDS011;1939;48.720;9.166;2023-11-21T03:30:36;11.10;;;1.17;;
3847;SDS011;1939;48.720;9.166;2023-11-21T03:33:01;4.53;;;0.80;;
3847;SDS011;1939;48.720;9.166;2023-11-21T03:35:26;2.20;;;0.93;;
3847;SDS011;1939;48.720;9.166;2023-11-21T03:37:52;2.33;;;0.70;;
3847;SDS011;1939;48.720;9.166;2023-11-21T03:40:17;2.07;;;0.70;;
3847;SDS011;1939;48.720;9.166;2023-11-21T03:42:42;1.77;;;1.10;;
3847;SDS011;1939;48.720;9.166;2023-11-21T03:45:07;3.20;;;1.67;;
3847;SDS011;1939;48.720;9.166;2023-11-21T03:47:33;2.20;;;0.90;;
3847;SDS011;1939;48.720;9.166;2023-11-21T03:49:59;2.67;;;0.73;;
3847;SDS011;1939;48.720;9.166;2023-11-21T03:52:24;1.77;;;0.70;;
3847;SDS011;1939;48.720;9.166;2023-11-21T03:54:50;1.13;;;0.63;;
3847;SDS011;1939;48.720;9.166;2023-11-21T03:57:15;1.80;;;0.70;;
3847;SDS011;1939;48.720;9.166;2023-11-21T03:59:40;1.40;;;0.83;;
3847;SDS011;1939;48.720;9.166;2023-11-21T04:02:06;0.93;;;0.60;;
3847;SDS011;1939;48.720;9.166;2023-11-21T04:04:32;2.13;;;0.90;;
3847;SDS011;1939;48.720;9.166;2023-11-21T04:06:58;7.37;;;3.13;;
3847;SDS011;1939;48.720;9.166;2023-11-21T04:09:23;6.90;;;0.80;;
3847;SDS011;1939;48.720;9.166;2023-11-21T04:11:50;0.80;;;0.50;;
3847;SDS011;1939;48.720;9.166;2023-11-21T04:14:15;1.23;;;1.00;;
3847;SDS011;1939;48.720;9.166;2023-11-21T04:16:41;1.60;;;0.80;;
3847;SDS011;1939;48.720;9.166;2023-11-21T04:19:07;3.30;;;1.00;;
3847;SDS011;1939;48.720;9.166;2023-11-21T04:21:32;1.03;;;0.87;;
3847;SDS011;1939;48.720;9.166;2023-11-21T04:23:58;2.00;;;0.63;;
3847;SDS011;1939;48.720;9.166;2023-11-21T04:26:23;0.70;;;0.50;;
3847;SDS011;1939;48.720;9.166;2023-11-21T04:28:48;2.00;;;0.60;;
3847;SDS011;1939;48.720;9.166;2023-11-21T04:31:14;2.30;;;0.80;;
3847;SDS011;1939;48.720;9.166;2023-11-21T04:33:39;2.83;;;0.60;;
3847;SDS011;1939;48.720;9.166;2023-11-21T04:36:04;3.23;;;1.37;;
3847;SDS011;1939;48.720;9.166;2023-11-21T04:38:29;2.50;;;0.83;;
3847;SDS011;1939;48.720;9.166;2023-11-21T04:40:55;3.30;;;0.67;;
3847;SDS011;1939;48.720;9.166;2023-11-21T04:43:20;2.10;;;1.50;;
3847;SDS011;1939;48.720;9.166;2023-11-21T04:45:45;3.93;;;1.03;;
3847;SDS011;1939;48.720;9.166;2023-11-21T04:48:10;3.23;;;1.47;;
3847;SDS011;1939;48.720;9.166;2023-11-21T04:50:36;3.63;;;1.27;;
3847;SDS011;1939;48.720;9.166;2023-11-21T04:53:01;8.63;;;1.33;;
3847;SDS011;1939;48.720;9.166;2023-11-21T04:55:26;4.60;;;0.80;;
3847;SDS011;1939;48.720;9.166;2023-11-21T04:57:53;3.10;;;0.80;;
3847;SDS011;1939;48.720;9.166;2023-11-21T05:00:18;3.37;;;0.90;;
3847;SDS011;1939;48.720;9.166;2023-11-21T05:02:43;4.30;;;0.60;;
3847;SDS011;1939;48.720;9.166;2023-11-21T05:05:09;5.40;;;1.47;;
3847;SDS011;1939;48.720;9.166;2023-11-21T05:07:35;3.73;;;0.60;;
3847;SDS011;1939;48.720;9.166;2023-11-21T05:10:00;0.63;;;0.63;;
3847;SDS011;1939;48.720;9.166;2023-11-21T05:12:30;1.10;;;0.50;;
3847;SDS011;1939;48.720;9.166;2023-11-21T05:14:58;1.07;;;0.67;;
3847;SDS011;1939;48.720;9.166;2023-11-21T05:17:23;2.90;;;0.60;;
3847;SDS011;1939;48.720;9.166;2023-11-21T05:19:48;0.90;;;0.67;;
3847;SDS011;1939;48.720;9.166;2023-11-21T05:22:13;0.97;;;0.60;;
3847;SDS011;1939;48.720;9.166;2023-11-21T05:24:39;0.93;;;0.70;;
3847;SDS011;1939;48.720;9.166;2023-11-21T05:27:04;4.37;;;0.87;;
3847;SDS011;1939;48.720;9.166;2023-11-21T05:29:29;4.40;;;0.80;;
3847;SDS011;1939;48.720;9.166;2023-11-21T05:31:55;4.50;;;0.57;;
3847;SDS011;1939;48.720;9.166;2023-11-21T05:34:20;2.20;;;0.50;;
3847;SDS011;1939;48.720;9.166;2023-11-21T05:36:46;0.70;;;0.43;;
3847;SDS011;1939;48.720;9.166;2023-11-21T05:39:11;1.37;;;0.80;;
3847;SDS011;1939;48.720;9.166;2023-11-21T05:41:36;4.80;;;1.70;;
3847;SDS011;1939;48.720;9.166;2023-11-21T05:44:02;0.93;;;0.60;;
3847;SDS011;1939;48.720;9.166;2023-11-21T05:46:27;1.63;;;1.03;;
3847;SDS011;1939;48.720;9.166;2023-11-21T05:48:52;4.07;;;1.20;;
3847;SDS011;1939;48.720;9.166;2023-11-21T05:51:17;1.40;;;0.80;;
3847;SDS011;1939;48.720;9.166;2023-11-21T05:53:43;1.73;;;1.20;;
3847;SDS011;1939;48.720;9.166;2023-11-21T05:56:08;1.60;;;0.93;;
3847;SDS011;1939;48.720;9.166;2023-11-21T05:58:34;0.90;;;0.90;;
3847;SDS011;1939;48.720;9.166;2023-11-21T06:00:59;3.33;;;0.63;;
3847;SDS011;1939;48.720;9.166;2023-11-21T06:03:24;1.83;;;0.97;;
3847;SDS011;1939;48.720;9.166;2023-11-21T06:05:50;3.50;;;0.60;;
3847;SDS011;1939;48.720;9.166;2023-11-21T06:08:15;1.13;;;0.67;;
3847;SDS011;1939;48.720;9.166;2023-11-21T06:10:42;1.63;;;1.30;;
3847;SDS011;1939;48.720;9.166;2023-11-21T06:13:08;2.10;;;0.77;;
3847;SDS011;1939;48.720;9.166;2023-11-21T06:15:35;1.50;;;1.10;;
3847;SDS011;1939;48.720;9.166;2023-11-21T06:18:00;1.40;;;0.73;;
3847;SDS011;1939;48.720;9.166;2023-11-21T06:20:26;2.07;;;0.83;;
3847;SDS011;1939;48.720;9.166;2023-11-21T06:22:51;1.53;;;0.87;;
3847;SDS011;1939;48.720;9.166;2023-11-21T06:25:16;1.70;;;1.57;;
3847;SDS011;1939;48.720;9.166;2023-11-21T06:27:43;1.10;;;1.00;;
3847;SDS011;1939;48.720;9.166;2023-11-21T06:30:09;3.90;;;0.83;;
3847;SDS011;1939;48.720;9.166;2023-11-21T06:32:35;1.30;;;1.13;;
3847;SDS011;1939;48.720;9.166;2023-11-21T06:35:01;4.50;;;1.40;;
3847;SDS011;1939;48.720;9.166;2023-11-21T06:37:27;2.50;;;1.43;;
3847;SDS011;1939;48.720;9.166;2023-11-21T06:39:52;2.70;;;1.30;;
3847;SDS011;1939;48.720;9.166;2023-11-21T06:42:17;5.70;;;1.40;;
3847;SDS011;1939;48.720;9.166;2023-11-21T06:44:44;2.70;;;1.47;;
3847;SDS011;1939;48.720;9.166;2023-11-21T06:47:09;2.07;;;1.20;;
3847;SDS011;1939;48.720;9.166;2023-11-21T06:49:35;2.40;;;1.57;;
3847;SDS011;1939;48.720;9.166;2023-11-21T06:52:01;6.83;;;1.20;;
3847;SDS011;1939;48.720;9.166;2023-11-21T06:54:28;2.37;;;1.30;;
3847;SDS011;1939;48.720;9.166;2023-11-21T06:56:53;5.47;;;2.70;;
3847;SDS011;1939;48.720;9.166;2023-11-21T06:59:18;2.93;;;1.43;;
3847;SDS011;1939;48.720;9.166;2023-11-21T07:01:43;3.80;;;1.50;;
3847;SDS011;1939;48.720;9.166;2023-11-21T07:04:09;5.60;;;1.30;;
3847;SDS011;1939;48.720;9.166;2023-11-21T07:06:35;1.50;;;1.40;;
3847;SDS011;1939;48.720;9.166;2023-11-21T07:09:00;1.73;;;1.23;;
3847;SDS011;1939;48.720;9.166;2023-11-21T07:11:26;7.30;;;1.40;;
3847;SDS011;1939;48.720;9.166;2023-11-21T07:13:51;1.60;;;1.33;;
3847;SDS011;1939;48.720;9.166;2023-11-21T07:16:17;2.00;;;1.37;;
3847;SDS011;1939;48.720;9.166;2023-11-21T07:18:43;1.83;;;1.40;;
3847;SDS011;1939;48.720;9.166;2023-11-21T07:21:09;2.50;;;1.50;;
3847;SDS011;1939;48.720;9.166;2023-11-21T07:23:36;2.97;;;1.43;;
3847;SDS011;1939;48.720;9.166;2023-11-21T07:26:02;2.47;;;1.43;;
3847;SDS011;1939;48.720;9.166;2023-11-21T07:28:28;2.83;;;1.77;;
3847;SDS011;1939;48.720;9.166;2023-11-21T07:30:53;2.30;;;1.70;;
3847;SDS011;1939;48.720;9.166;2023-11-21T07:33:19;4.33;;;1.70;;
3847;SDS011;1939;48.720;9.166;2023-11-21T07:35:44;3.13;;;1.43;;
3847;SDS011;1939;48.720;9.166;2023-11-21T07:38:09;1.47;;;1.20;;
3847;SDS011;1939;48.720;9.166;2023-11-21T07:40:34;3.47;;;1.80;;
3847;SDS011;1939;48.720;9.166;2023-11-21T07:43:00;3.47;;;2.27;;
3847;SDS011;1939;48.720;9.166;2023-11-21T07:45:25;5.13;;;1.50;;
3847;SDS011;1939;48.720;9.166;2023-11-21T07:47:52;3.20;;;1.83;;
3847;SDS011;1939;48.720;9.166;2023-11-21T07:50:18;1.43;;;1.27;;
3847;SDS011;1939;48.720;9.166;2023-11-21T07:52:43;2.17;;;1.50;;
3847;SDS011;1939;48.720;9.166;2023-11-21T07:55:08;6.83;;;1.80;;
3847;SDS011;1939;48.720;9.166;2023-11-21T07:57:33;2.60;;;1.23;;
3847;SDS011;1939;48.720;9.166;2023-11-21T07:59:58;3.20;;;1.40;;
3847;SDS011;1939;48.720;9.166;2023-11-21T08:02:25;1.70;;;1.53;;
3847;SDS011;1939;48.720;9.166;2023-11-21T08:04:51;2.03;;;1.43;;
3847;SDS011;1939;48.720;9.166;2023-11-21T08:07:17;2.80;;;1.87;;
3847;SDS011;1939;48.720;9.166;2023-11-21T08:09:42;2.83;;;1.73;;
3847;SDS011;1939;48.720;9.166;2023-11-21T08:12:09;1.70;;;1.47;;
3847;SDS011;1939;48.720;9.166;2023-11-21T08:14:36;3.47;;;1.77;;
3847;SDS011;1939;48.720;9.166;2023-11-21T08:17:04;2.00;;;1.40;;
3847;SDS011;1939;48.720;9.166;2023-11-21T08:19:29;2.03;;;1.50;;
3847;SDS011;1939;48.720;9.166;2023-11-21T08:21:54;2.30;;;1.47;;
3847;SDS011;1939;48.720;9.166;2023-11-21T08:24:20;2.23;;;1.37;;
3847;SDS011;1939;48.720;9.166;2023-11-21T08:26:45;6.80;;;1.80;;
3847;SDS011;1939;48.720;9.166;2023-11-21T08:29:10;1.90;;;1.30;;
3847;SDS011;1939;48.720;9.166;2023-11-21T08:31:36;3.57;;;1.03;;
3847;SDS011;1939;48.720;9.166;2023-11-21T08:34:02;2.07;;;1.67;;
3847;SDS011;1939;48.720;9.166;2023-11-21T08:36:28;2.60;;;1.30;;
3847;SDS011;1939;48.720;9.166;2023-11-21T08:38:53;4.20;;;1.13;;
3847;SDS011;1939;48.720;9.166;2023-11-21T08:41:18;3.77;;;1.50;;
3847;SDS011;1939;48.720;9.166;2023-11-21T08:43:47;2.83;;;1.93;;
3847;SDS011;1939;48.720;9.166;2023-11-21T08:46:13;1.73;;;1.17;;
3847;SDS011;1939;48.720;9.166;2023-11-21T08:48:38;2.03;;;1.37;;
3847;SDS011;1939;48.720;9.166;2023-11-21T08:51:03;2.30;;;1.67;;
3847;SDS011;1939;48.720;9.166;2023-11-21T08:53:29;3.13;;;1.83;;
3847;SDS011;1939;48.720;9.166;2023-11-21T08:55:57;6.40;;;1.83;;
3847;SDS011;1939;48.720;9.166;2023-11-21T08:58:22;6.37;;;1.50;;
3847;SDS011;1939;48.720;9.166;2023-11-21T09:00:47;4.40;;;1.27;;
3847;SDS011;1939;48.720;9.166;2023-11-21T09:03:13;1.63;;;1.23;;
3847;SDS011;1939;48.720;9.166;2023-11-21T09:05:38;2.30;;;1.13;;
3847;SDS011;1939;48.720;9.166;2023-11-21T09:08:04;3.50;;;1.73;;
3847;SDS011;1939;48.720;9.166;2023-11-21T09:10:29;3.27;;;1.40;;
3847;SDS011;1939;48.720;9.166;2023-11-21T09:12:54;2.80;;;1.60;;
3847;SDS011;1939;48.720;9.166;2023-11-21T09:15:20;1.37;;;0.80;;
3847;SDS011;1939;48.720;9.166;2023-11-21T09:17:45;1.63;;;1.50;;
3847;SDS011;1939;48.720;9.166;2023-11-21T09:20:10;1.70;;;1.17;;
3847;SDS011;1939;48.720;9.166;2023-11-21T09:22:36;1.93;;;0.90;;
3847;SDS011;1939;48.720;9.166;2023-11-21T09:25:01;1.00;;;0.70;;
3847;SDS011;1939;48.720;9.166;2023-11-21T09:27:30;2.40;;;1.83;;
3847;SDS011;1939;48.720;9.166;2023-11-21T09:29:55;5.50;;;0.90;;
3847;SDS011;1939;48.720;9.166;2023-11-21T09:32:20;4.60;;;1.10;;
3847;SDS011;1939;48.720;9.166;2023-11-21T09:34:46;1.70;;;0.90;;
3847;SDS011;1939;48.720;9.166;2023-11-21T09:37:11;2.53;;;0.97;;
3847;SDS011;1939;48.720;9.166;2023-11-21T09:39:37;1.70;;;1.20;;
3847;SDS011;1939;48.720;9.166;2023-11-21T09:42:04;1.90;;;1.30;;
3847;SDS011;1939;48.720;9.166;2023-11-21T09:44:35;1.07;;;0.80;;
3847;SDS011;1939;48.720;9.166;2023-11-21T09:47:01;2.53;;;0.83;;
3847;SDS011;1939;48.720;9.166;2023-11-21T09:49:27;1.30;;;0.87;;
3847;SDS011;1939;48.720;9.166;2023-11-21T09:51:55;2.90;;;0.73;;
3847;SDS011;1939;48.720;9.166;2023-11-21T09:54:21;1.20;;;0.77;;
3847;SDS011;1939;48.720;9.166;2023-11-21T09:56:46;0.90;;;0.80;;
3847;SDS011;1939;48.720;9.166;2023-11-21T09:59:13;1.37;;;0.73;;
3847;SDS011;1939;48.720;9.166;2023-11-21T10:01:40;1.20;;;0.80;;
3847;SDS011;1939;48.720;9.166;2023-11-21T10:04:06;1.27;;;0.70;;
3847;SDS011;1939;48.720;9.166;2023-11-21T10:06:37;3.80;;;1.03;;
3847;SDS011;1939;48.720;9.166;2023-11-21T10:09:02;1.17;;;0.60;;
3847;SDS011;1939;48.720;9.166;2023-11-21T10:11:28;0.67;;;0.40;;
3847;SDS011;1939;48.720;9.166;2023-11-21T10:13:55;0.70;;;0.47;;
3847;SDS011;1939;48.720;9.166;2023-11-21T10:16:22;0.60;;;0.50;;
3847;SDS011;1939;48.720;9.166;2023-11-21T10:18:51;1.23;;;1.00;;
3847;SDS011;1939;48.720;9.166;2023-11-21T10:21:17;3.70;;;0.73;;
3847;SDS011;1939;48.720;9.166;2023-11-21T10:23:43;2.80;;;1.00;;
3847;SDS011;1939;48.720;9.166;2023-11-21T10:26:09;0.70;;;0.53;;
3847;SDS011;1939;48.720;9.166;2023-11-21T10:28:41;1.77;;;0.80;;
3847;SDS011;1939;48.720;9.166;2023-11-21T10:31:06;2.40;;;0.50;;
3847;SDS011;1939;48.720;9.166;2023-11-21T10:33:32;0.80;;;0.60;;
3847;SDS011;1939;48.720;9.166;2023-11-21T10:35:57;1.53;;;0.60;;
3847;SDS011;1939;48.720;9.166;2023-11-21T10:38:23;1.30;;;0.90;;
3847;SDS011;1939;48.720;9.166;2023-11-21T10:40:49;0.60;;;0.40;;
3847;SDS011;1939;48.720;9.166;2023-11-21T10:43:15;0.80;;;0.60;;
3847;SDS011;1939;48.720;9.166;2023-11-21T10:45:41;1.20;;;0.80;;
3847;SDS011;1939;48.720;9.166;2023-11-21T10:48:10;0.80;;;0.70;;
3847;SDS011;1939;48.720;9.166;2023-11-21T10:50:36;5.40;;;0.37;;
3847;SDS011;1939;48.720;9.166;2023-11-21T10:53:02;0.83;;;0.63;;
3847;SDS011;1939;48.720;9.166;2023-11-21T10:55:29;0.70;;;0.43;;
3847;SDS011;1939;48.720;9.166;2023-11-21T10:57:54;1.97;;;0.97;;
3847;SDS011;1939;48.720;9.166;2023-11-21T11:00:20;0.90;;;0.50;;
3847;SDS011;1939;48.720;9.166;2023-11-21T11:02:49;0.73;;;0.60;;
3847;SDS011;1939;48.720;9.166;2023-11-21T11:05:15;3.00;;;0.83;;
3847;SDS011;1939;48.720;9.166;2023-11-21T11:07:42;5.60;;;1.17;;
3847;SDS011;1939;48.720;9.166;2023-11-21T11:10:08;2.30;;;2.00;;
3847;SDS011;1939;48.720;9.166;2023-11-21T11:12:39;1.00;;;0.80;;
3847;SDS011;1939;48.720;9.166;2023-11-21T11:15:04;1.03;;;0.83;;
3847;SDS011;1939;48.720;9.166;2023-11-21T11:17:30;1.80;;;1.00;;
3847;SDS011;1939;48.720;9.166;2023-11-21T11:19:57;1.80;;;1.30;;
3847;SDS011;1939;48.720;9.166;2023-11-21T11:30:06;2.77;;;1.17;;
3847;SDS011;1939;48.720;9.166;2023-11-21T11:32:52;1.30;;;0.90;;
3847;SDS011;1939;48.720;9.166;2023-11-21T11:35:34;1.80;;;1.00;;
3847;SDS011;1939;48.720;9.166;2023-11-21T11:38:03;1.00;;;0.90;;
3847;SDS011;1939;48.720;9.166;2023-11-21T11:40:41;2.30;;;1.20;;
3847;SDS011;1939;48.720;9.166;2023-11-21T11:43:07;3.43;;;1.30;;
3847;SDS011;1939;48.720;9.166;2023-11-21T11:45:33;3.53;;;2.93;;
3847;SDS011;1939;48.720;9.166;2023-11-21T11:47:59;2.30;;;1.80;;
3847;SDS011;1939;48.720;9.166;2023-11-21T11:50:25;6.50;;;1.40;;
3847;SDS011;1939;48.720;9.166;2023-11-21T11:52:54;3.33;;;2.20;;
3847;SDS011;1939;48.720;9.166;2023-11-21T11:55:23;2.93;;;2.67;;
3847;SDS011;1939;48.720;9.166;2023-11-21T12:00:18;2.20;;;1.90;;
3847;SDS011;1939;48.720;9.166;2023-11-21T12:02:53;1.07;;;0.87;;
3847;SDS011;1939;48.720;9.166;2023-11-21T12:05:19;1.30;;;0.90;;
3847;SDS011;1939;48.720;9.166;2023-11-21T12:07:46;2.10;;;1.30;;
3847;SDS011;1939;48.720;9.166;2023-11-21T12:10:12;1.30;;;0.90;;
3847;SDS011;1939;48.720;9.166;2023-11-21T12:12:49;1.17;;;0.67;;
3847;SDS011;1939;48.720;9.166;2023-11-21T12:15:14;1.10;;;0.93;;
3847;SDS011;1939;48.720;9.166;2023-11-21T12:17:43;6.20;;;1.10;;
3847;SDS011;1939;48.720;9.166;2023-11-21T12:20:09;1.70;;;1.07;;
3847;SDS011;1939;48.720;9.166;2023-11-21T12:22:46;1.77;;;1.07;;
3847;SDS011;1939;48.720;9.166;2023-11-21T12:25:13;7.40;;;1.33;;
3847;SDS011;1939;48.720;9.166;2023-11-21T12:27:41;1.50;;;1.27;;
3847;SDS011;1939;48.720;9.166;2023-11-21T12:30:06;2.43;;;1.03;;
3847;SDS011;1939;48.720;9.166;2023-11-21T12:32:38;1.07;;;0.93;;
3847;SDS011;1939;48.720;9.166;2023-11-21T12:35:03;1.87;;;0.97;;
3847;SDS011;1939;48.720;9.166;2023-11-21T12:37:31;2.23;;;1.00;;
3847;SDS011;1939;48.720;9.166;2023-11-21T12:39:56;1.20;;;0.97;;
3847;SDS011;1939;48.720;9.166;2023-11-21T12:42:23;2.57;;;1.10;;
3847;SDS011;1939;48.720;9.166;2023-11-21T12:44:48;2.30;;;1.40;;
3847;SDS011;1939;48.720;9.166;2023-11-21T12:47:16;3.00;;;1.20;;
3847;SDS011;1939;48.720;9.166;2023-11-21T12:49:41;2.70;;;1.60;;
3847;SDS011;1939;48.720;9.166;2023-11-21T12:52:09;2.47;;;1.20;;
3847;SDS011;1939;48.720;9.166;2023-11-21T12:54:34;1.07;;;0.90;;
3847;SDS011;1939;48.720;9.166;2023-11-21T12:57:00;3.07;;;1.60;;
3847;SDS011;1939;48.720;9.166;2023-11-21T12:59:26;1.63;;;1.17;;
3847;SDS011;1939;48.720;9.166;2023-11-21T13:01:53;1.70;;;1.57;;
3847;SDS011;1939;48.720;9.166;2023-11-21T13:04:29;2.00;;;1.40;;
3847;SDS011;1939;48.720;9.166;2023-11-21T13:06:54;1.30;;;1.20;;
3847;SDS011;1939;48.720;9.166;2023-11-21T13:09:21;2.13;;;1.60;;
3847;SDS011;1939;48.720;9.166;2023-11-21T13:11:46;1.70;;;1.60;;
3847;SDS011;1939;48.720;9.166;2023-11-21T13:14:11;1.67;;;1.33;;
3847;SDS011;1939;48.720;9.166;2023-11-21T13:16:37;1.27;;;1.17;;
3847;SDS011;1939;48.720;9.166;2023-11-21T13:19:04;1.37;;;1.27;;
3847;SDS011;1939;48.720;9.166;2023-11-21T13:21:29;4.43;;;1.07;;
3847;SDS011;1939;48.720;9.166;2023-11-21T13:23:54;1.50;;;1.40;;
3847;SDS011;1939;48.720;9.166;2023-11-21T13:26:21;1.40;;;0.90;;
3847;SDS011;1939;48.720;9.166;2023-11-21T13:28:48;1.63;;;1.07;;
3847;SDS011;1939;48.720;9.166;2023-11-21T13:31:13;2.20;;;1.23;;
3847;SDS011;1939;48.720;9.166;2023-11-21T13:33:52;2.90;;;1.30;;
3847;SDS011;1939;48.720;9.166;2023-11-21T13:36:23;1.93;;;1.33;;
3847;SDS011;1939;48.720;9.166;2023-11-21T13:38:49;1.57;;;1.47;;
3847;SDS011;1939;48.720;9.166;2023-11-21T13:41:15;1.47;;;1.00;;
3847;SDS011;1939;48.720;9.166;2023-11-21T13:43:40;1.53;;;1.07;;
3847;SDS011;1939;48.720;9.166;2023-11-21T13:46:09;2.00;;;0.70;;
3847;SDS011;1939;48.720;9.166;2023-11-21T13:48:46;0.97;;;0.60;;
3847;SDS011;1939;48.720;9.166;2023-11-21T13:51:21;1.30;;;0.93;;
3847;SDS011;1939;48.720;9.166;2023-11-21T13:53:54;1.00;;;0.80;;
3847;SDS011;1939;48.720;9.166;2023-11-21T13:56:20;0.70;;;0.57;;
3847;SDS011;1939;48.720;9.166;2023-11-21T13:58:49;0.93;;;0.80;;
3847;SDS011;1939;48.720;9.166;2023-11-21T14:01:20;3.00;;;0.50;;
3847;SDS011;1939;48.720;9.166;2023-11-21T14:03:57;2.27;;;1.20;;
3847;SDS011;1939;48.720;9.166;2023-11-21T14:06:33;0.80;;;0.70;;
3847;SDS011;1939;48.720;9.166;2023-11-21T14:09:05;4.00;;;1.00;;
3847;SDS011;1939;48.720;9.166;2023-11-21T14:11:30;1.20;;;0.83;;
3847;SDS011;1939;48.720;9.166;2023-11-21T14:13:55;1.70;;;1.30;;
3847;SDS011;1939;48.720;9.166;2023-11-21T14:16:21;2.00;;;1.67;;
3847;SDS011;1939;48.720;9.166;2023-11-21T14:18:47;2.50;;;2.30;;
3847;SDS011;1939;48.720;9.166;2023-11-21T14:21:26;3.13;;;1.60;;
3847;SDS011;1939;48.720;9.166;2023-11-21T14:23:52;2.53;;;2.30;;
3847;SDS011;1939;48.720;9.166;2023-11-21T14:26:19;3.80;;;2.80;;
3847;SDS011;1939;48.720;9.166;2023-11-21T14:28:45;4.23;;;3.17;;
3847;SDS011;1939;48.720;9.166;2023-11-21T14:31:13;3.67;;;2.70;;
3847;SDS011;1939;48.720;9.166;2023-11-21T14:33:39;6.07;;;3.27;;
3847;SDS011;1939;48.720;9.166;2023-11-21T14:36:04;7.07;;;3.87;;
3847;SDS011;1939;48.720;9.166;2023-11-21T14:38:33;3.60;;;3.07;;
3847;SDS011;1939;48.720;9.166;2023-11-21T14:40:58;4.53;;;4.00;;
3847;SDS011;1939;48.720;9.166;2023-11-21T14:43:23;6.27;;;4.17;;
3847;SDS011;1939;48.720;9.166;2023-11-21T14:45:49;6.23;;;3.57;;
3847;SDS011;1939;48.720;9.166;2023-11-21T14:48:15;5.17;;;3.93;;
3847;SDS011;1939;48.720;9.166;2023-11-21T14:50:41;5.40;;;3.80;;
3847;SDS011;1939;48.720;9.166;2023-11-21T14:53:07;4.53;;;3.60;;
3847;SDS011;1939;48.720;9.166;2023-11-21T14:55:33;3.40;;;2.93;;
3847;SDS011;1939;48.720;9.166;2023-11-21T14:58:10;3.83;;;3.47;;
3847;SDS011;1939;48.720;9.166;2023-11-21T15:00:39;5.17;;;3.63;;
3847;SDS011;1939;48.720;9.166;2023-11-21T15:03:11;6.00;;;3.27;;
3847;SDS011;1939;48.720;9.166;2023-11-21T15:05:51;8.43;;;3.60;;
3847;SDS011;1939;48.720;9.166;2023-11-21T15:08:16;3.30;;;2.83;;
3847;SDS011;1939;48.720;9.166;2023-11-21T15:10:57;8.63;;;5.57;;
3847;SDS011;1939;48.720;9.166;2023-11-21T15:13:22;11.40;;;8.60;;
3847;SDS011;1939;48.720;9.166;2023-11-21T15:15:50;11.90;;;7.93;;
3847;SDS011;1939;48.720;9.166;2023-11-21T15:18:15;31.20;;;17.10;;
3847;SDS011;1939;48.720;9.166;2023-11-21T15:20:40;6.80;;;4.20;;